Time;durP1;ratioP1;P1;durP2;ratioP2;P2;SDS_P1;SDS_P2;PMS_P1;PMS_P2;Temp;Humidity;BMP_temperature;BMP_pressure;BME280_temperature;BME280_humidity;BME280_pressure;Samples;Min_cycle;Max_cycle;Signal;HPM_P1;HPM_P2
2023/11/05 00:01:50;;;;;;;;;;;;;;;12.19;55.90;97320.44;4964771;27;98310;-66
2023/11/05 00:04:16;;;;;;;;;;;;;;;12.18;56.04;97330.47;4971834;27;99558;-69
2023/11/05 00:06:42;;;;;;;;;;;;;;;12.19;56.00;97339.34;5014580;27;98551;-69
2023/11/05 00:09:08;;;;;;;;;;;;;;;12.18;55.92;97349.38;4970328;27;98216;-65
2023/11/05 00:11:35;;;;;;;;;;;;;;;12.17;55.99;97350.47;4970442;27;98293;-69
2023/11/05 00:14:02;;;;;;;;;;;;;;;12.19;55.89;97350.16;4998639;27;98366;-65
2023/11/05 00:16:29;;;;;;;;;;;;;;;12.18;56.08;97348.56;4977979;27;100683;-64
2023/11/05 00:18:55;;;;;;;;;;;;;;;12.17;55.82;97342.38;4972711;27;98149;-65
2023/11/05 00:21:21;;;;;;;;;;;;;;;12.18;56.14;97335.06;4982276;27;98186;-64
2023/11/05 00:23:48;;;;;;;;;;;;;;;12.17;56.08;97328.09;4972313;27;98162;-65
2023/11/05 00:26:15;;;;;;;;;;;;;;;12.17;55.84;97334.28;4979164;27;99608;-65
2023/11/05 00:28:41;;;;;;;;;;;;;;;12.17;56.11;97331.56;4966191;27;98654;-65
2023/11/05 00:31:09;;;;;;;;;;;;;;;12.17;56.04;97336.97;4971627;27;98443;-65
2023/11/05 00:33:36;;;;;;;;;;;;;;;12.17;56.07;97344.31;4978808;27;98600;-65
2023/11/05 00:36:02;;;;;;;;;;;;;;;12.17;55.94;97347.78;4988356;27;98497;-64
2023/11/05 00:38:28;;;;;;;;;;;;;;;12.16;55.94;97338.13;4971375;27;97961;-68
2023/11/05 00:40:54;;;;;;;;;;;;;;;12.17;56.09;97347.78;4984278;27;98223;-64
2023/11/05 00:43:21;;;;;;;;;;;;;;;12.16;56.03;97348.91;4965157;27;99519;-65
2023/11/05 00:45:47;;;;;;;;;;;;;;;12.16;55.98;97343.53;4970822;27;98134;-64
2023/11/05 00:48:13;;;;;;;;;;;;;;;12.17;55.90;97341.59;4968317;27;98783;-64
2023/11/05 00:50:40;;;;;;;;;;;;;;;12.17;55.83;97338.91;4966175;27;97932;-64
2023/11/05 00:53:06;;;;;;;;;;;;;;;12.16;56.09;97326.53;4967634;27;98364;-69
2023/11/05 00:55:34;;;;;;;;;;;;;;;12.15;55.92;97331.16;4968786;27;98117;-64
2023/11/05 00:58:01;;;;;;;;;;;;;;;12.17;55.94;97336.19;4969556;27;98306;-65
2023/11/05 01:00:27;;;;;;;;;;;;;;;12.17;56.04;97333.50;4962904;27;98526;-64
2023/11/05 01:02:54;;;;;;;;;;;;;;;12.15;55.97;97331.16;4965032;27;98411;-69
2023/11/05 01:05:20;;;;;;;;;;;;;;;12.16;55.93;97327.31;4969598;27;98770;-68
2023/11/05 01:07:46;;;;;;;;;;;;;;;12.17;55.84;97330.81;4968728;27;98089;-69
2023/11/05 01:10:13;;;;;;;;;;;;;;;12.16;56.00;97331.94;4984539;27;98350;-64
2023/11/05 01:12:39;;;;;;;;;;;;;;;12.16;56.06;97331.94;4968650;27;98589;-65
2023/11/05 01:15:06;;;;;;;;;;;;;;;12.15;56.00;97320.38;4964628;27;99283;-65
2023/11/05 01:17:33;;;;;;;;;;;;;;;12.15;55.96;97317.66;4966888;27;98154;-65
2023/11/05 01:19:59;;;;;;;;;;;;;;;12.16;56.04;97313.81;4964105;27;99579;-65
2023/11/05 01:22:26;;;;;;;;;;;;;;;12.16;55.95;97321.13;4971483;27;98216;-65
2023/11/05 01:24:52;;;;;;;;;;;;;;;12.16;56.07;97318.44;4970586;27;98499;-65
2023/11/05 01:27:18;;;;;;;;;;;;;;;12.16;56.15;97323.84;4994767;27;97901;-65
2023/11/05 01:29:45;;;;;;;;;;;;;;;12.15;55.97;97323.06;4987978;27;98764;-65
2023/11/05 01:32:11;;;;;;;;;;;;;;;12.14;55.92;97323.41;4981751;27;98513;-65
2023/11/05 01:34:37;;;;;;;;;;;;;;;12.14;56.03;97324.19;4969879;27;99538;-65
2023/11/05 01:37:03;;;;;;;;;;;;;;;12.14;56.18;97334.97;4988512;27;98116;-69
2023/11/05 01:39:29;;;;;;;;;;;;;;;12.14;56.10;97332.28;4980388;27;98648;-65
2023/11/05 01:41:56;;;;;;;;;;;;;;;12.12;56.03;97339.97;4965108;27;100279;-69
2023/11/05 01:44:22;;;;;;;;;;;;;;;12.13;56.06;97343.44;4989597;27;98121;-65
2023/11/05 01:46:49;;;;;;;;;;;;;;;12.12;55.82;97337.25;4970395;27;99670;-63
2023/11/05 01:49:14;;;;;;;;;;;;;;;12.12;55.91;97334.56;4984319;27;106452;-68
2023/11/05 01:51:41;;;;;;;;;;;;;;;12.13;56.26;97343.44;4998581;27;99109;-65
2023/11/05 01:54:12;;;;;;;;;;;;;;;12.12;55.89;97331.09;4981478;27;98160;-65
2023/11/05 01:56:38;;;;;;;;;;;;;;;12.12;55.94;97321.06;4969363;27;98258;-68
2023/11/05 01:59:04;;;;;;;;;;;;;;;12.11;55.99;97324.13;4984584;27;98162;-68
2023/11/05 02:01:30;;;;;;;;;;;;;;;12.10;56.07;97326.00;4968342;27;98027;-64
2023/11/05 02:03:56;;;;;;;;;;;;;;;12.10;55.89;97319.84;5000041;27;104075;-68
2023/11/05 02:06:23;;;;;;;;;;;;;;;12.10;56.02;97319.84;4975202;27;97916;-68
2023/11/05 02:08:49;;;;;;;;;;;;;;;12.09;55.89;97315.59;4984748;27;99502;-64
2023/11/05 02:11:16;;;;;;;;;;;;;;;12.09;55.90;97320.97;4966664;27;98090;-64
2023/11/05 02:13:54;;;;;;;;;;;;;;;12.09;56.06;97323.69;4966778;27;98335;-65
2023/11/05 02:16:21;;;;;;;;;;;;;;;12.08;56.16;97322.91;4986379;27;98233;-65
2023/11/05 02:18:48;;;;;;;;;;;;;;;12.08;56.07;97322.13;4970600;27;98143;-65
2023/11/05 02:21:25;;;;;;;;;;;;;;;12.08;55.98;97322.13;4969628;27;100334;-64
2023/11/05 02:23:51;;;;;;;;;;;;;;;12.07;56.09;97315.16;4973769;27;98382;-65
2023/11/05 02:26:18;;;;;;;;;;;;;;;12.06;55.89;97308.19;4980025;27;98016;-65
2023/11/05 02:28:44;;;;;;;;;;;;;;;12.05;56.01;97318.19;4972707;27;99988;-65
2023/11/05 02:31:11;;;;;;;;;;;;;;;12.04;56.07;97320.13;4968715;27;98605;-65
2023/11/05 02:33:42;;;;;;;;;;;;;;;12.04;55.98;97319.34;4991958;27;98348;-65
2023/11/05 02:36:11;;;;;;;;;;;;;;;12.03;56.00;97315.88;4998830;27;99162;-68
2023/11/05 02:38:38;;;;;;;;;;;;;;;12.03;55.96;97315.88;4970000;27;98155;-65
2023/11/05 02:41:07;;;;;;;;;;;;;;;12.03;56.04;97312.38;4964626;27;99245;-69
2023/11/05 02:43:33;;;;;;;;;;;;;;;12.03;56.04;97315.09;4959881;27;98543;-66
2023/11/05 02:46:00;;;;;;;;;;;;;;;12.01;56.12;97304.63;4968092;27;98711;-69
2023/11/05 02:48:26;;;;;;;;;;;;;;;12.01;56.16;97309.25;4971029;27;99512;-65
2023/11/05 02:50:53;;;;;;;;;;;;;;;12.00;56.05;97307.69;4981889;27;98906;-68
2023/11/05 02:53:19;;;;;;;;;;;;;;;12.00;56.09;97302.28;4960701;27;99678;-66
2023/11/05 02:55:46;;;;;;;;;;;;;;;11.99;56.17;97309.59;4980089;27;101801;-68
2023/11/05 02:58:12;;;;;;;;;;;;;;;11.99;55.99;97303.44;4995828;27;98400;-64
2023/11/05 03:00:38;;;;;;;;;;;;;;;11.97;56.12;97309.16;4983733;27;98344;-68
2023/11/05 03:03:05;;;;;;;;;;;;;;;11.98;56.02;97312.63;4965668;27;99029;-68
2023/11/05 03:05:32;;;;;;;;;;;;;;;11.97;56.32;97311.09;4964844;27;98586;-64
2023/11/05 03:07:58;;;;;;;;;;;;;;;11.96;56.24;97309.53;4967465;27;98512;-64
2023/11/05 03:10:26;;;;;;;;;;;;;;;11.96;56.16;97309.53;4966315;27;97885;-64
2023/11/05 03:12:51;;;;;;;;;;;;;;;11.96;55.94;97309.53;4981466;27;98415;-68
2023/11/05 03:15:20;;;;;;;;;;;;;;;11.95;56.16;97306.03;4987181;27;98299;-64
2023/11/05 03:17:46;;;;;;;;;;;;;;;11.95;56.04;97305.28;4981998;27;99564;-64
2023/11/05 03:20:12;;;;;;;;;;;;;;;11.93;56.09;97307.53;4967872;27;98365;-68
2023/11/05 03:22:39;;;;;;;;;;;;;;;11.92;55.96;97304.03;4968127;27;99138;-68
2023/11/05 03:25:07;;;;;;;;;;;;;;;11.91;56.25;97301.72;4962859;27;98952;-64
2023/11/05 03:27:33;;;;;;;;;;;;;;;11.91;56.20;97301.72;4966553;27;98493;-68
2023/11/05 03:30:02;;;;;;;;;;;;;;;11.89;56.03;97302.03;4970227;27;98274;-64
2023/11/05 03:32:29;;;;;;;;;;;;;;;11.88;56.07;97295.09;4979085;27;97991;-64
2023/11/05 03:34:55;;;;;;;;;;;;;;;11.86;56.05;97281.16;4982632;27;98574;-68
2023/11/05 03:37:21;;;;;;;;;;;;;;;11.85;56.14;97290.38;4967277;27;99573;-68
2023/11/05 03:39:50;;;;;;;;;;;;;;;11.85;56.08;97289.59;4978563;27;99918;-69
2023/11/05 03:42:16;;;;;;;;;;;;;;;11.83;55.94;97278.34;4965710;27;99469;-68
2023/11/05 03:44:43;;;;;;;;;;;;;;;11.83;56.14;97283.75;4963910;27;98155;-68
2023/11/05 03:47:09;;;;;;;;;;;;;;;11.80;56.14;97286.03;4982288;27;98590;-68
2023/11/05 03:49:35;;;;;;;;;;;;;;;11.80;56.01;97277.94;4979058;27;99847;-68
2023/11/05 03:52:03;;;;;;;;;;;;;;;11.79;56.34;97275.59;4964602;27;121823;-68
2023/11/05 03:54:29;;;;;;;;;;;;;;;11.78;56.12;97274.00;4962723;27;98652;-68
2023/11/05 03:56:57;;;;;;;;;;;;;;;11.77;56.06;97265.13;4962159;27;99454;-68
2023/11/05 03:59:24;;;;;;;;;;;;;;;11.76;56.14;97268.97;4961902;27;99857;-68
2023/11/05 04:01:51;;;;;;;;;;;;;;;11.76;56.10;97271.66;4983615;27;98029;-64
2023/11/05 04:04:18;;;;;;;;;;;;;;;11.73;56.09;97269.66;4968678;27;98097;-69
2023/11/05 04:06:45;;;;;;;;;;;;;;;11.73;56.16;97260.78;4963056;27;98195;-64
2023/11/05 04:09:12;;;;;;;;;;;;;;;11.72;56.11;97253.84;4961797;27;99636;-68
2023/11/05 04:11:38;;;;;;;;;;;;;;;11.70;56.18;97248.78;4969288;27;98294;-64
2023/11/05 04:14:05;;;;;;;;;;;;;;;11.70;56.11;97250.69;4988852;27;97688;-64
2023/11/05 04:16:32;;;;;;;;;;;;;;;11.69;56.21;97246.44;4966396;27;98958;-69
2023/11/05 04:18:58;;;;;;;;;;;;;;;11.69;56.32;97241.03;4973798;27;98103;-69
2023/11/05 04:21:26;;;;;;;;;;;;;;;11.67;55.97;97244.09;4985441;27;98465;-64
2023/11/05 04:23:53;;;;;;;;;;;;;;;11.68;56.20;97250.28;4963604;27;98242;-68
2023/11/05 04:26:19;;;;;;;;;;;;;;;11.66;56.12;97253.31;4969685;27;99869;-64
2023/11/05 04:28:46;;;;;;;;;;;;;;;11.66;56.20;97247.13;4982465;27;98257;-64
2023/11/05 04:31:12;;;;;;;;;;;;;;;11.66;55.97;97245.22;4977535;27;98212;-64
2023/11/05 04:33:40;;;;;;;;;;;;;;;11.65;56.23;97240.19;4970203;27;99449;-68
2023/11/05 04:36:06;;;;;;;;;;;;;;;11.64;56.24;97236.72;4982138;27;98711;-63
2023/11/05 04:38:33;;;;;;;;;;;;;;;11.65;56.09;97237.50;4980177;27;98627;-64
2023/11/05 04:41:00;;;;;;;;;;;;;;;11.62;56.23;97238.19;5002212;27;99865;-64
2023/11/05 04:43:26;;;;;;;;;;;;;;;11.63;56.04;97237.03;4988409;27;98164;-68
2023/11/05 04:45:53;;;;;;;;;;;;;;;11.61;56.19;97234.72;4964458;27;98490;-68
2023/11/05 04:48:19;;;;;;;;;;;;;;;11.61;56.17;97233.94;4984065;27;99286;-64
2023/11/05 04:50:45;;;;;;;;;;;;;;;11.61;56.10;97223.13;4972512;27;98666;-68
2023/11/05 04:53:11;;;;;;;;;;;;;;;11.59;56.18;97228.88;5001828;27;99700;-68
2023/11/05 04:55:37;;;;;;;;;;;;;;;11.58;56.20;97218.44;4968915;27;98050;-63
2023/11/05 04:58:05;;;;;;;;;;;;;;;11.58;56.21;97213.03;4982086;27;97967;-64
2023/11/05 05:00:32;;;;;;;;;;;;;;;11.58;56.00;97219.22;4981833;27;98057;-64
2023/11/05 05:02:59;;;;;;;;;;;;;;;11.55;56.21;97212.63;4966578;27;98239;-64
2023/11/05 05:05:25;;;;;;;;;;;;;;;11.56;56.15;97202.63;4983414;27;98562;-64
2023/11/05 05:07:51;;;;;;;;;;;;;;;11.55;56.21;97206.44;4971056;27;98116;-69
2023/11/05 05:10:18;;;;;;;;;;;;;;;11.54;56.16;97204.88;5012297;27;99620;-64
2023/11/05 05:12:44;;;;;;;;;;;;;;;11.54;56.17;97196.78;4981130;27;98023;-68
2023/11/05 05:15:10;;;;;;;;;;;;;;;11.52;56.17;97190.97;4984112;27;99092;-68
2023/11/05 05:17:36;;;;;;;;;;;;;;;11.52;56.05;97199.06;4986236;27;111099;-68
2023/11/05 05:20:04;;;;;;;;;;;;;;;11.51;55.98;97194.78;4988932;27;98570;-63
2023/11/05 05:22:30;;;;;;;;;;;;;;;11.50;56.06;97194.00;4984552;27;99552;-68
2023/11/05 05:24:56;;;;;;;;;;;;;;;11.50;56.11;97190.53;5013444;27;123030;-64
2023/11/05 05:27:23;;;;;;;;;;;;;;;11.49;56.19;97199.75;4993978;27;106082;-64
2023/11/05 05:29:51;;;;;;;;;;;;;;;11.49;56.21;97197.06;4975143;27;98631;-63
2023/11/05 05:32:17;;;;;;;;;;;;;;;11.48;56.15;97190.13;4971603;27;98173;-69
2023/11/05 05:34:43;;;;;;;;;;;;;;;11.46;56.23;97186.97;4988438;27;98342;-68
2023/11/05 05:37:11;;;;;;;;;;;;;;;11.46;56.31;97184.28;4981224;27;98845;-64
2023/11/05 05:39:38;;;;;;;;;;;;;;;11.45;56.25;97186.19;4964576;27;98140;-68
2023/11/05 05:42:04;;;;;;;;;;;;;;;11.44;56.26;97181.94;5001050;27;100411;-68
2023/11/05 05:44:30;;;;;;;;;;;;;;;11.44;56.17;97192.72;4998205;27;98956;-69
2023/11/05 05:46:57;;;;;;;;;;;;;;;11.42;56.08;97189.59;4999607;27;101170;-69
2023/11/05 05:49:24;;;;;;;;;;;;;;;11.43;56.02;97190.38;5000665;27;99258;-64
2023/11/05 05:51:51;;;;;;;;;;;;;;;11.43;56.18;97187.66;4986069;27;98858;-63
2023/11/05 05:54:21;;;;;;;;;;;;;;;11.42;56.25;97186.09;4971618;27;98124;-64
2023/11/05 05:56:48;;;;;;;;;;;;;;;11.41;56.26;97184.56;4971203;27;98334;-63
2023/11/05 05:59:15;;;;;;;;;;;;;;;11.41;56.28;97196.13;4955950;27;99634;-68
2023/11/05 06:01:42;;;;;;;;;;;;;;;11.41;56.15;97187.25;4979363;27;98579;-64
2023/11/05 06:04:09;;;;;;;;;;;;;;;11.41;56.26;97185.34;4982732;27;100231;-63
2023/11/05 06:06:36;;;;;;;;;;;;;;;11.41;56.18;97189.94;4982387;27;99937;-69
2023/11/05 06:09:06;;;;;;;;;;;;;;;11.41;56.20;97193.41;4983383;27;99167;-69
2023/11/05 06:11:33;;;;;;;;;;;;;;;11.40;56.16;97183.78;4967203;27;98305;-63
2023/11/05 06:13:59;;;;;;;;;;;;;;;11.41;56.14;97187.25;4963533;27;98586;-69
2023/11/05 06:16:25;;;;;;;;;;;;;;;11.42;55.89;97196.91;4981006;27;98389;-69
2023/11/05 06:18:52;;;;;;;;;;;;;;;11.41;55.99;97182.63;4983825;27;98324;-64
2023/11/05 06:21:19;;;;;;;;;;;;;;;11.41;56.12;97190.72;4980471;27;99369;-64
2023/11/05 06:23:45;;;;;;;;;;;;;;;11.42;56.11;97186.88;4967541;27;98271;-64
2023/11/05 06:26:11;;;;;;;;;;;;;;;11.43;56.04;97177.66;4975769;27;99465;-64
2023/11/05 06:28:37;;;;;;;;;;;;;;;11.44;56.10;97186.56;4982162;27;109789;-69
2023/11/05 06:31:03;;;;;;;;;;;;;;;11.44;56.15;97184.63;4992347;27;98439;-68
2023/11/05 06:33:33;;;;;;;;;;;;;;;11.46;55.96;97186.97;4961744;27;98355;-63
2023/11/05 06:36:01;;;;;;;;;;;;;;;11.47;55.75;97183.91;4969967;27;98697;-64
2023/11/05 06:38:30;;;;;;;;;;;;;;;11.47;56.07;97170.44;4962603;27;97911;-64
2023/11/05 06:40:57;;;;;;;;;;;;;;;11.49;56.00;97172.78;4991879;27;98253;-64
2023/11/05 06:43:23;;;;;;;;;;;;;;;11.51;55.97;97159.72;4976836;27;98319;-64
2023/11/05 06:45:50;;;;;;;;;;;;;;;11.51;56.16;97157.81;4990716;27;98458;-63
2023/11/05 06:48:18;;;;;;;;;;;;;;;11.53;56.10;97166.34;4964352;27;99159;-69
2023/11/05 06:50:45;;;;;;;;;;;;;;;11.56;55.91;97156.75;4977673;27;100324;-63
2023/11/05 06:53:11;;;;;;;;;;;;;;;11.59;55.90;97157.94;4974431;27;98751;-63
2023/11/05 06:55:37;;;;;;;;;;;;;;;11.61;55.80;97153.00;4965233;27;98131;-69
2023/11/05 06:58:04;;;;;;;;;;;;;;;11.63;55.87;97150.72;4991795;27;100243;-68
2023/11/05 07:00:31;;;;;;;;;;;;;;;11.67;56.02;97148.88;4984129;27;98843;-64
2023/11/05 07:02:58;;;;;;;;;;;;;;;11.68;55.78;97145.06;4985340;27;98646;-69
2023/11/05 07:05:25;;;;;;;;;;;;;;;11.69;56.28;97152.00;4962858;27;98555;-64
2023/11/05 07:07:53;;;;;;;;;;;;;;;11.71;55.87;97149.72;4974840;27;99199;-64
2023/11/05 07:10:19;;;;;;;;;;;;;;;11.73;55.81;97158.25;4981490;27;98266;-69
2023/11/05 07:12:46;;;;;;;;;;;;;;;11.75;55.96;97159.47;4960442;27;97939;-69
2023/11/05 07:15:12;;;;;;;;;;;;;;;11.79;55.78;97160.34;4954497;28;98405;-64
2023/11/05 07:17:38;;;;;;;;;;;;;;;11.85;55.73;97162.78;4941898;28;99122;-69
2023/11/05 07:20:06;;;;;;;;;;;;;;;11.88;55.86;97156.66;4955401;27;100382;-64
2023/11/05 07:22:32;;;;;;;;;;;;;;;11.91;55.68;97156.75;4988793;27;99613;-68
2023/11/05 07:24:59;;;;;;;;;;;;;;;12.01;55.24;97161.56;4938189;27;101144;-69
2023/11/05 07:27:26;;;;;;;;;;;;;;;12.16;55.56;97162.63;4942710;27;99447;-63
2023/11/05 07:29:52;;;;;;;;;;;;;;;12.33;55.26;97153.28;4949811;27;98378;-64
2023/11/05 07:32:19;;;;;;;;;;;;;;;12.49;55.00;97163.97;4967936;27;101406;-64
2023/11/05 07:34:47;;;;;;;;;;;;;;;12.67;54.83;97145.38;4942883;27;98242;-68
2023/11/05 07:37:13;;;;;;;;;;;;;;;12.80;54.73;97151.38;4961603;27;98247;-69
2023/11/05 07:39:40;;;;;;;;;;;;;;;12.78;54.93;97151.75;4948722;27;98407;-63
2023/11/05 07:42:07;;;;;;;;;;;;;;;12.85;54.96;97154.59;4940763;27;99358;-64
2023/11/05 07:44:34;;;;;;;;;;;;;;;12.89;54.94;97146.50;4963990;27;100091;-68
2023/11/05 07:47:03;;;;;;;;;;;;;;;12.84;55.56;97161.09;4945731;27;98055;-64
2023/11/05 07:49:29;;;;;;;;;;;;;;;12.80;55.45;97167.59;4943237;27;98639;-69
2023/11/05 07:51:55;;;;;;;;;;;;;;;12.82;55.41;97165.34;4944876;27;99702;-68
2023/11/05 07:54:24;;;;;;;;;;;;;;;12.80;55.37;97173.78;4954399;27;99777;-63
2023/11/05 07:56:53;;;;;;;;;;;;;;;12.77;55.75;97160.97;4982893;27;98040;-69
2023/11/05 07:59:19;;;;;;;;;;;;;;;12.76;55.54;97164.84;4975363;27;101238;-64
2023/11/05 08:01:46;;;;;;;;;;;;;;;12.75;55.68;97171.38;4965037;27;98536;-64
2023/11/05 08:04:14;;;;;;;;;;;;;;;12.80;55.52;97162.97;4950290;27;99069;-69
2023/11/05 08:06:41;;;;;;;;;;;;;;;12.85;55.39;97165.38;4952012;27;98474;-68
2023/11/05 08:09:08;;;;;;;;;;;;;;;12.89;55.30;97157.31;4951069;27;98635;-63
2023/11/05 08:11:34;;;;;;;;;;;;;;;12.88;55.57;97161.16;4948730;27;99852;-68
2023/11/05 08:14:00;;;;;;;;;;;;;;;12.84;55.79;97161.09;4950987;27;98702;-68
2023/11/05 08:16:27;;;;;;;;;;;;;;;12.82;55.76;97163.41;4960537;27;98402;-63
2023/11/05 08:18:53;;;;;;;;;;;;;;;12.80;55.54;97160.25;4960014;27;98589;-69
2023/11/05 08:21:21;;;;;;;;;;;;;;;12.80;55.51;97165.66;4950636;27;99796;-69
2023/11/05 08:23:48;;;;;;;;;;;;;;;12.83;55.61;97162.25;4957663;27;97952;-64
2023/11/05 08:26:14;;;;;;;;;;;;;;;12.88;55.40;97158.47;4953999;27;98017;-64
2023/11/05 08:28:41;;;;;;;;;;;;;;;12.97;55.43;97148.97;4966862;27;98032;-69
2023/11/05 08:31:10;;;;;;;;;;;;;;;13.46;54.66;97141.97;4963174;27;98738;-69
2023/11/05 08:33:39;;;;;;;;;;;;;;;14.15;53.93;97128.91;4965437;27;100224;-64
2023/11/05 08:36:07;;;;;;;;;;;;;;;15.00;53.16;97122.72;4965786;27;99700;-69
2023/11/05 08:38:33;;;;;;;;;;;;;;;16.30;52.05;97114.03;4957431;27;99469;-69
2023/11/05 08:40:59;;;;;;;;;;;;;;;16.82;51.96;97117.22;4962468;27;98733;-64
2023/11/05 08:43:26;;;;;;;;;;;;;;;16.59;52.97;97123.78;4941803;28;99604;-69
2023/11/05 08:45:52;;;;;;;;;;;;;;;16.50;53.27;97133.47;4957812;27;98577;-69
2023/11/05 08:48:19;;;;;;;;;;;;;;;16.56;53.27;97129.22;4949196;27;100145;-64
2023/11/05 08:50:45;;;;;;;;;;;;;;;16.89;53.09;97134.31;4942822;27;98243;-69
2023/11/05 08:53:12;;;;;;;;;;;;;;;16.80;53.37;97131.22;4944823;28;98308;-64
2023/11/05 08:55:39;;;;;;;;;;;;;;;17.42;52.81;97132.72;4957432;27;99989;-64
2023/11/05 08:58:05;;;;;;;;;;;;;;;17.93;52.24;97130.63;4962357;27;98715;-64
2023/11/05 09:00:34;;;;;;;;;;;;;;;17.76;52.97;97134.97;4944102;27;98906;-69
2023/11/05 09:03:01;;;;;;;;;;;;;;;17.74;53.14;97126.41;4946397;27;98604;-69
2023/11/05 09:05:27;;;;;;;;;;;;;;;17.84;53.23;97139.22;4961971;27;113943;-69
2023/11/05 09:07:55;;;;;;;;;;;;;;;17.78;53.30;97143.53;4965129;27;99200;-65
2023/11/05 09:10:24;;;;;;;;;;;;;;;17.97;53.04;97143.06;4961149;27;98446;-64
2023/11/05 09:12:51;;;;;;;;;;;;;;;17.93;53.08;97136.09;4946397;27;98602;-64
2023/11/05 09:15:19;;;;;;;;;;;;;;;17.79;53.48;97129.50;4967921;27;98610;-69
2023/11/05 09:17:46;;;;;;;;;;;;;;;17.78;53.62;97141.56;4965801;27;98208;-64
2023/11/05 09:20:13;;;;;;;;;;;;;;;17.72;53.50;97134.94;4978600;27;98262;-69
2023/11/05 09:22:41;;;;;;;;;;;;;;;17.55;53.81;97133.84;4979593;27;100081;-64
2023/11/05 09:25:07;;;;;;;;;;;;;;;17.42;54.20;97136.22;4982517;27;98651;-69
2023/11/05 09:27:37;;;;;;;;;;;;;;;17.21;54.41;97138.19;4988645;27;103171;-69
2023/11/05 09:30:10;;;;;;;;;;;;;;;16.99;54.52;97137.44;4976723;27;98548;-64
2023/11/05 09:32:36;;;;;;;;;;;;;;;16.83;54.66;97140.53;4974287;27;98372;-64
2023/11/05 09:35:03;;;;;;;;;;;;;;;16.74;54.55;97140.94;4967536;27;98903;-64
2023/11/05 09:37:29;;;;;;;;;;;;;;;16.70;54.68;97140.09;4966753;27;98773;-69
2023/11/05 09:39:58;;;;;;;;;;;;;;;16.65;54.79;97143.22;4966152;27;100151;-64
2023/11/05 09:42:24;;;;;;;;;;;;;;;16.70;54.53;97140.09;4974760;27;99633;-64
2023/11/05 09:44:51;;;;;;;;;;;;;;;16.76;54.41;97130.44;4964267;27;99278;-64
2023/11/05 09:47:17;;;;;;;;;;;;;;;16.94;54.12;97138.59;4961871;27;98034;-64
2023/11/05 09:49:43;;;;;;;;;;;;;;;17.00;54.24;97137.03;4965420;27;99604;-69
2023/11/05 09:52:13;;;;;;;;;;;;;;;17.05;54.19;97133.13;4967141;27;98365;-69
2023/11/05 09:54:42;;;;;;;;;;;;;;;17.00;53.99;97136.25;4969057;27;99690;-65
2023/11/05 09:57:09;;;;;;;;;;;;;;;16.97;54.46;97137.81;4974476;27;98255;-64
2023/11/05 09:59:47;;;;;;;;;;;;;;;16.85;54.47;97136.25;4982644;27;100535;-69
2023/11/05 10:02:13;;;;;;;;;;;;;;;17.06;54.11;97134.72;4962845;27;98360;-69
2023/11/05 10:04:40;;;;;;;;;;;;;;;17.36;53.92;97134.25;4966430;27;98402;-68
2023/11/05 10:07:06;;;;;;;;;;;;;;;17.52;53.60;97122.94;4964068;27;98444;-69
2023/11/05 10:09:32;;;;;;;;;;;;;;;17.67;53.54;97124.47;4964153;27;99267;-69
2023/11/05 10:11:59;;;;;;;;;;;;;;;17.78;53.79;97121.75;4993069;27;98766;-64
2023/11/05 10:14:25;;;;;;;;;;;;;;;17.74;53.88;97118.22;4962924;27;99457;-69
2023/11/05 10:16:54;;;;;;;;;;;;;;;17.60;53.97;97127.19;4966272;27;98059;-69
2023/11/05 10:19:22;;;;;;;;;;;;;;;17.42;54.49;97136.22;4995484;27;98780;-69
2023/11/05 10:21:48;;;;;;;;;;;;;;;17.28;54.54;97135.44;4967828;27;98762;-65
2023/11/05 10:24:14;;;;;;;;;;;;;;;17.13;54.71;97131.97;4973930;27;98691;-69
2023/11/05 10:26:41;;;;;;;;;;;;;;;17.01;54.83;97137.81;4962636;27;100582;-69
2023/11/05 10:29:08;;;;;;;;;;;;;;;16.92;54.80;97136.25;4976552;27;98277;-64
2023/11/05 10:31:35;;;;;;;;;;;;;;;16.95;54.70;97136.66;4960088;27;98367;-64
2023/11/05 10:34:03;;;;;;;;;;;;;;;16.97;54.82;97134.31;4962736;27;99520;-64
2023/11/05 10:36:31;;;;;;;;;;;;;;;16.95;54.66;97142.09;4980549;27;100152;-65
2023/11/05 10:38:59;;;;;;;;;;;;;;;16.99;54.66;97130.03;4964834;27;99847;-65
2023/11/05 10:41:25;;;;;;;;;;;;;;;17.28;54.07;97130.78;4980457;27;100039;-65
2023/11/05 10:43:52;;;;;;;;;;;;;;;17.47;53.88;97126.84;4961620;27;98303;-65
2023/11/05 10:46:19;;;;;;;;;;;;;;;17.71;53.85;97119.00;4965876;27;98576;-64
2023/11/05 10:48:49;;;;;;;;;;;;;;;18.01;53.53;97119.31;4995225;27;98487;-65
2023/11/05 10:51:15;;;;;;;;;;;;;;;18.03;53.54;97118.91;4980825;27;98097;-65
2023/11/05 10:53:42;;;;;;;;;;;;;;;18.08;53.57;97116.56;4962742;27;98310;-68
2023/11/05 10:56:32;;;;;;;;;;;;;;;18.13;53.84;97113.41;4985292;27;98803;-69
2023/11/05 10:58:58;;;;;;;;;;;;;;;18.12;53.81;97119.25;4988246;27;98233;-65
2023/11/05 11:01:31;;;;;;;;;;;;;;;17.99;54.20;97110.75;4983600;27;99577;-65
2023/11/05 11:04:15;;;;;;;;;;;;;;;17.84;54.30;97120.94;4972302;27;98429;-64
2023/11/05 11:06:43;;;;;;;;;;;;;;;17.71;54.51;97121.72;4978095;27;101053;-64
2023/11/05 11:09:18;;;;;;;;;;;;;;;17.59;54.66;97125.66;4957762;27;98152;-64
2023/11/05 11:11:45;;;;;;;;;;;;;;;17.58;54.46;97116.72;4999110;27;98489;-67
2023/11/05 11:14:12;;;;;;;;;;;;;;;17.62;54.41;97117.47;4976230;27;98608;-63
2023/11/05 11:16:44;;;;;;;;;;;;;;;17.75;54.37;97120.56;4967515;27;98420;-67
2023/11/05 11:19:12;;;;;;;;;;;;;;;17.89;54.05;97120.53;4965754;27;99164;-64
2023/11/05 11:21:48;;;;;;;;;;;;;;;18.03;54.09;97136.03;4993389;27;98134;-69
2023/11/05 11:24:40;;;;;;;;;;;;;;;18.32;53.76;97122.25;4981772;27;98340;-68
2023/11/05 11:27:07;;;;;;;;;;;;;;;18.44;53.55;97127.25;4963000;27;98106;-64
2023/11/05 11:29:35;;;;;;;;;;;;;;;18.42;53.85;97128.81;4989265;27;98318;-68
2023/11/05 11:32:03;;;;;;;;;;;;;;;18.36;53.99;97134.69;4964295;27;98238;-68
2023/11/05 11:34:32;;;;;;;;;;;;;;;18.21;54.28;97127.75;4983288;27;99287;-68
2023/11/05 11:37:04;;;;;;;;;;;;;;;18.04;54.43;97129.41;4966419;27;99306;-69
2023/11/05 11:39:31;;;;;;;;;;;;;;;17.89;54.84;97133.38;4983276;27;99538;-64
2023/11/05 11:41:57;;;;;;;;;;;;;;;17.78;54.73;97138.09;4959158;27;98142;-64
2023/11/05 11:44:24;;;;;;;;;;;;;;;17.66;55.02;97145.47;4982459;27;99141;-68
2023/11/05 11:46:50;;;;;;;;;;;;;;;17.64;54.77;97149.75;4985108;27;98333;-69
2023/11/05 11:49:17;;;;;;;;;;;;;;;17.75;54.69;97136.91;4971361;27;98945;-69
2023/11/05 11:51:44;;;;;;;;;;;;;;;17.77;54.55;97148.19;4965556;27;98691;-64
2023/11/05 11:54:11;;;;;;;;;;;;;;;17.75;54.74;97150.53;4964482;27;98705;-64
2023/11/05 11:56:41;;;;;;;;;;;;;;;17.63;54.84;97148.22;4985416;27;99437;-69
2023/11/05 11:59:08;;;;;;;;;;;;;;;17.52;54.94;97147.44;4985682;27;98591;-68
2023/11/05 12:01:37;;;;;;;;;;;;;;;17.47;55.05;97162.25;4968071;27;100719;-64
2023/11/05 12:04:05;;;;;;;;;;;;;;;17.35;54.96;97162.66;4978626;27;99446;-64
2023/11/05 12:06:32;;;;;;;;;;;;;;;17.21;55.42;97160.72;4984651;27;98576;-68
2023/11/05 12:09:01;;;;;;;;;;;;;;;17.18;55.20;97162.28;4976168;27;98176;-68
2023/11/05 12:11:32;;;;;;;;;;;;;;;17.23;55.13;97163.84;4997042;27;100468;-69
2023/11/05 12:14:00;;;;;;;;;;;;;;;17.22;55.15;97169.69;4987572;27;100251;-68
2023/11/05 12:16:27;;;;;;;;;;;;;;;17.23;55.31;97172.00;4981750;27;97911;-64
2023/11/05 12:18:53;;;;;;;;;;;;;;;17.17;54.98;97174.34;4968434;27;98318;-68
2023/11/05 12:21:20;;;;;;;;;;;;;;;17.06;55.34;97184.47;4989062;27;98362;-65
2023/11/05 12:23:48;;;;;;;;;;;;;;;17.00;55.26;97182.50;4974494;27;99340;-68
2023/11/05 12:26:16;;;;;;;;;;;;;;;16.90;55.53;97184.06;4994541;27;98452;-64
2023/11/05 12:28:44;;;;;;;;;;;;;;;16.78;55.67;97192.59;4980102;27;99126;-69
2023/11/05 12:31:10;;;;;;;;;;;;;;;16.66;55.73;97197.22;4962154;27;99394;-68
2023/11/05 12:33:38;;;;;;;;;;;;;;;16.56;55.73;97200.69;4956597;27;98728;-64
2023/11/05 12:36:06;;;;;;;;;;;;;;;16.55;55.75;97209.22;4978680;27;98745;-64
2023/11/05 12:38:33;;;;;;;;;;;;;;;16.54;55.75;97205.72;4977191;27;99073;-64
2023/11/05 12:41:00;;;;;;;;;;;;;;;16.49;55.77;97214.25;4983664;27;98743;-69
2023/11/05 12:43:27;;;;;;;;;;;;;;;16.44;55.90;97218.13;4996748;27;98628;-68
2023/11/05 12:45:55;;;;;;;;;;;;;;;16.43;56.01;97223.97;4980002;27;98321;-69